Terminal Aerodrome Forecast
Issued by NWS

Home | Current Version | Previous Version | Text Only | Print | Product List | Glossary On
Versions: 1 2 3 4 5 6 7 8 9 10 11 12 13 14 15 16
000
FTUS45 KTFX 012323
TAFCTB
TAF
KCTB 012323Z 0200/0224 27016G25KT P6SM SCT120
     FM020300 25008KT P6SM BKN150
     FM021700 24025G35KT P6SM BKN150=

USA.gov is the U.S. government's official web portal to all federal, state and local government web resources and services.